sensor_id;sensor_type;location;lat;lon;timestamp;pressure;altitude;pressure_sealevel;temperature;humidity
71643;BME280;59438;45.014;39.006;2022-12-19T00:00:44;102805.91;;;4.14;70.23
71643;BME280;59438;45.014;39.006;2022-12-19T00:03:10;102818.88;;;4.13;70.68
71643;BME280;59438;45.014;39.006;2022-12-19T00:05:37;102826.69;;;4.13;70.77
71643;BME280;59438;45.014;39.006;2022-12-19T00:08:04;102803.69;;;3.95;70.45
71643;BME280;59438;45.014;39.006;2022-12-19T00:10:31;102816.41;;;4.19;70.50
71643;BME280;59438;45.014;39.006;2022-12-19T00:12:59;102819.84;;;4.16;70.31
71643;BME280;59438;45.014;39.006;2022-12-19T00:15:25;102823.25;;;4.15;70.61
71643;BME280;59438;45.014;39.006;2022-12-19T00:17:52;102818.91;;;4.14;70.35
71643;BME280;59438;45.014;39.006;2022-12-19T00:20:18;102802.44;;;4.15;70.19
71643;BME280;59438;45.014;39.006;2022-12-19T00:22:44;102792.00;;;4.12;70.47
71643;BME280;59438;45.014;39.006;2022-12-19T00:25:11;102804.09;;;4.12;70.38
71643;BME280;59438;45.014;39.006;2022-12-19T00:27:37;102798.75;;;4.04;70.38
71643;BME280;59438;45.014;39.006;2022-12-19T00:30:06;102793.34;;;3.96;70.07
71643;BME280;59438;45.014;39.006;2022-12-19T00:32:32;102796.91;;;4.00;70.65
71643;BME280;59438;45.014;39.006;2022-12-19T00:34:59;102800.34;;;3.99;70.51
71643;BME280;59438;45.014;39.006;2022-12-19T00:37:26;102811.50;;;3.95;70.41
71643;BME280;59438;45.014;39.006;2022-12-19T00:39:52;102811.50;;;3.93;70.70
71643;BME280;59438;45.014;39.006;2022-12-19T00:42:19;102815.88;;;3.96;70.47
71643;BME280;59438;45.014;39.006;2022-12-19T00:44:46;102805.50;;;3.97;70.47
71643;BME280;59438;45.014;39.006;2022-12-19T00:47:14;102800.28;;;3.97;70.57
71643;BME280;59438;45.014;39.006;2022-12-19T00:49:40;102798.56;;;3.96;70.29
71643;BME280;59438;45.014;39.006;2022-12-19T00:52:07;102796.78;;;3.95;70.23
71643;BME280;59438;45.014;39.006;2022-12-19T00:54:33;102800.19;;;3.93;70.55
71643;BME280;59438;45.014;39.006;2022-12-19T00:56:59;102808.75;;;3.89;70.15
71643;BME280;59438;45.014;39.006;2022-12-19T00:59:26;102792.34;;;3.90;70.43
71643;BME280;59438;45.014;39.006;2022-12-19T01:01:53;102794.97;;;3.91;70.40
71643;BME280;59438;45.014;39.006;2022-12-19T01:04:21;102784.47;;;3.88;70.05
71643;BME280;59438;45.014;39.006;2022-12-19T01:06:47;102792.25;;;3.87;70.36
71643;BME280;59438;45.014;39.006;2022-12-19T01:09:14;102798.31;;;3.86;70.46
71643;BME280;59438;45.014;39.006;2022-12-19T01:11:40;102802.50;;;3.80;70.27
71643;BME280;59438;45.014;39.006;2022-12-19T01:14:07;102816.50;;;3.86;70.46
71643;BME280;59438;45.014;39.006;2022-12-19T01:16:33;102813.91;;;3.86;70.06
71643;BME280;59438;45.014;39.006;2022-12-19T01:18:59;102815.53;;;3.82;70.19
71643;BME280;59438;45.014;39.006;2022-12-19T01:21:27;102822.47;;;3.81;69.91
71643;BME280;59438;45.014;39.006;2022-12-19T01:23:54;102816.31;;;3.78;70.27
71643;BME280;59438;45.014;39.006;2022-12-19T01:26:20;102825.06;;;3.81;70.07
71643;BME280;59438;45.014;39.006;2022-12-19T01:28:47;102820.69;;;3.80;70.21
71643;BME280;59438;45.014;39.006;2022-12-19T01:31:13;102820.69;;;3.80;70.44
71643;BME280;59438;45.014;39.006;2022-12-19T01:33:40;102819.81;;;3.80;70.14
71643;BME280;59438;45.014;39.006;2022-12-19T01:36:07;102807.22;;;3.62;70.04
71643;BME280;59438;45.014;39.006;2022-12-19T01:38:35;102823.22;;;3.77;70.06
71643;BME280;59438;45.014;39.006;2022-12-19T01:41:02;102827.63;;;3.80;69.98
71643;BME280;59438;45.014;39.006;2022-12-19T01:43:31;102826.78;;;3.81;70.06
71643;BME280;59438;45.014;39.006;2022-12-19T01:46:00;102809.41;;;3.80;70.15
71643;BME280;59438;45.014;39.006;2022-12-19T01:48:31;102812.72;;;3.73;70.04
71643;BME280;59438;45.014;39.006;2022-12-19T01:51:00;102763.66;;;3.52;69.67
71643;BME280;59438;45.014;39.006;2022-12-19T01:53:30;102810.28;;;3.80;69.52
71643;BME280;59438;45.014;39.006;2022-12-19T01:56:01;102818.91;;;3.78;69.98
71643;BME280;59438;45.014;39.006;2022-12-19T01:58:27;102781.84;;;3.50;69.70
71643;BME280;59438;45.014;39.006;2022-12-19T02:00:54;102829.25;;;3.75;69.67
71643;BME280;59438;45.014;39.006;2022-12-19T02:03:23;102806.41;;;3.63;69.34
71643;BME280;59438;45.014;39.006;2022-12-19T02:05:52;102823.19;;;3.76;69.80
71643;BME280;59438;45.014;39.006;2022-12-19T02:08:19;102832.75;;;3.77;69.55
71643;BME280;59438;45.014;39.006;2022-12-19T02:10:46;102818.84;;;3.76;69.35
71643;BME280;59438;45.014;39.006;2022-12-19T02:13:14;102809.31;;;3.75;69.18
71643;BME280;59438;45.014;39.006;2022-12-19T02:15:46;102818.84;;;3.76;69.16
71643;BME280;59438;45.014;39.006;2022-12-19T02:18:21;102824.97;;;3.78;68.12
71643;BME280;59438;45.014;39.006;2022-12-19T02:21:22;102821.53;;;3.79;68.57
71643;BME280;59438;45.014;39.006;2022-12-19T02:24:32;102829.34;;;3.79;68.26
71643;BME280;59438;45.014;39.006;2022-12-19T02:27:27;102848.41;;;3.80;67.90
71643;BME280;59438;45.014;39.006;2022-12-19T02:30:10;102837.81;;;3.72;67.61
71643;BME280;59438;45.014;39.006;2022-12-19T02:32:46;102854.41;;;3.77;67.86
71643;BME280;59438;45.014;39.006;2022-12-19T02:35:20;102845.66;;;3.74;67.97
71643;BME280;59438;45.014;39.006;2022-12-19T02:37:54;102811.41;;;3.55;67.86
71643;BME280;59438;45.014;39.006;2022-12-19T02:40:25;102845.50;;;3.68;68.29
71643;BME280;59438;45.014;39.006;2022-12-19T02:42:56;102818.31;;;3.55;68.72
71643;BME280;59438;45.014;39.006;2022-12-19T02:45:24;102840.41;;;3.71;68.39
71643;BME280;59438;45.014;39.006;2022-12-19T02:47:54;102842.94;;;3.69;68.27
71643;BME280;59438;45.014;39.006;2022-12-19T02:50:21;102869.00;;;3.71;68.68
71643;BME280;59438;45.014;39.006;2022-12-19T02:52:48;102859.38;;;3.68;68.52
71643;BME280;59438;45.014;39.006;2022-12-19T02:55:18;102829.69;;;3.60;67.56
71643;BME280;59438;45.014;39.006;2022-12-19T02:58:04;102842.94;;;3.69;67.75
71643;BME280;59438;45.014;39.006;2022-12-19T03:00:36;102842.84;;;3.66;68.03
71643;BME280;59438;45.014;39.006;2022-12-19T03:03:09;102850.59;;;3.63;68.14
71643;BME280;59438;45.014;39.006;2022-12-19T03:05:44;102848.81;;;3.60;68.17
71643;BME280;59438;45.014;39.006;2022-12-19T03:08:22;102850.53;;;3.61;68.45
71643;BME280;59438;45.014;39.006;2022-12-19T03:10:56;102765.13;;;3.07;68.39
71643;BME280;59438;45.014;39.006;2022-12-19T03:13:26;102876.63;;;3.66;68.56
71643;BME280;59438;45.014;39.006;2022-12-19T03:15:54;102860.94;;;3.61;68.97
71643;BME280;59438;45.014;39.006;2022-12-19T03:18:22;102848.81;;;3.62;68.60
71643;BME280;59438;45.014;39.006;2022-12-19T03:20:51;102849.50;;;3.55;68.82
71643;BME280;59438;45.014;39.006;2022-12-19T03:23:20;102854.78;;;3.58;68.83
71643;BME280;59438;45.014;39.006;2022-12-19T03:25:49;102859.03;;;3.56;68.76
71643;BME280;59438;45.014;39.006;2022-12-19T03:28:21;102857.94;;;3.46;67.99
71643;BME280;59438;45.014;39.006;2022-12-19T03:30:49;102864.88;;;3.47;68.77
71643;BME280;59438;45.014;39.006;2022-12-19T03:33:18;102848.81;;;3.29;68.67
71643;BME280;59438;45.014;39.006;2022-12-19T03:35:48;102857.50;;;3.31;68.50
71643;BME280;59438;45.014;39.006;2022-12-19T03:38:17;102866.09;;;3.28;68.50
71643;BME280;59438;45.014;39.006;2022-12-19T03:40:45;102866.06;;;3.27;68.85
71643;BME280;59438;45.014;39.006;2022-12-19T03:43:15;102862.53;;;3.25;68.75
71643;BME280;59438;45.014;39.006;2022-12-19T03:45:47;102863.41;;;3.23;68.65
71643;BME280;59438;45.014;39.006;2022-12-19T03:48:20;102877.13;;;3.19;68.63
71643;BME280;59438;45.014;39.006;2022-12-19T03:50:58;102887.47;;;3.18;68.32
71643;BME280;59438;45.014;39.006;2022-12-19T03:53:37;102893.47;;;3.17;68.29
71643;BME280;59438;45.014;39.006;2022-12-19T03:56:10;102885.50;;;3.11;68.75
71643;BME280;59438;45.014;39.006;2022-12-19T03:58:45;102910.84;;;3.18;68.15
71643;BME280;59438;45.014;39.006;2022-12-19T04:01:13;102917.72;;;3.16;68.74
71643;BME280;59438;45.014;39.006;2022-12-19T04:03:40;102925.56;;;3.17;68.75
71643;BME280;59438;45.014;39.006;2022-12-19T04:06:08;102921.91;;;3.12;68.70
71643;BME280;59438;45.014;39.006;2022-12-19T04:08:35;102925.31;;;3.10;68.70
71643;BME280;59438;45.014;39.006;2022-12-19T04:11:08;102933.91;;;3.07;67.92
71643;BME280;59438;45.014;39.006;2022-12-19T04:13:39;102925.81;;;2.98;68.06
71643;BME280;59438;45.014;39.006;2022-12-19T04:16:11;102917.16;;;2.97;67.94
71643;BME280;59438;45.014;39.006;2022-12-19T04:18:45;102908.44;;;2.95;68.18
71643;BME280;59438;45.014;39.006;2022-12-19T04:21:18;102903.06;;;2.89;68.12
71643;BME280;59438;45.014;39.006;2022-12-19T04:23:53;102944.25;;;3.06;68.13
71643;BME280;59438;45.014;39.006;2022-12-19T04:26:21;102930.38;;;3.05;68.57
71643;BME280;59438;45.014;39.006;2022-12-19T04:28:50;102927.56;;;2.97;68.42
71643;BME280;59438;45.014;39.006;2022-12-19T04:31:19;102922.50;;;3.02;68.40
71643;BME280;59438;45.014;39.006;2022-12-19T04:33:46;102925.03;;;3.00;68.51
71643;BME280;59438;45.014;39.006;2022-12-19T04:36:14;102932.75;;;2.97;68.39
71643;BME280;59438;45.014;39.006;2022-12-19T04:38:40;102924.94;;;2.97;68.31
71643;BME280;59438;45.014;39.006;2022-12-19T04:41:07;102942.25;;;2.97;68.13
71643;BME280;59438;45.014;39.006;2022-12-19T04:43:33;102946.47;;;2.93;68.30
71643;BME280;59438;45.014;39.006;2022-12-19T04:46:00;102943.03;;;2.94;68.52
71643;BME280;59438;45.014;39.006;2022-12-19T04:48:26;102940.41;;;2.93;68.27
71643;BME280;59438;45.014;39.006;2022-12-19T04:50:54;102940.41;;;2.93;68.11
71643;BME280;59438;45.014;39.006;2022-12-19T04:53:23;102934.19;;;2.88;67.82
71643;BME280;59438;45.014;39.006;2022-12-19T04:55:50;102948.94;;;2.89;68.47
71643;BME280;59438;45.014;39.006;2022-12-19T04:58:16;102955.00;;;2.89;68.42
71643;BME280;59438;45.014;39.006;2022-12-19T05:00:42;102962.84;;;2.91;68.14
71643;BME280;59438;45.014;39.006;2022-12-19T05:03:09;102960.97;;;2.87;68.13
71643;BME280;59438;45.014;39.006;2022-12-19T05:05:35;102956.47;;;2.81;68.29
71643;BME280;59438;45.014;39.006;2022-12-19T05:08:02;102960.69;;;2.77;68.15
71643;BME280;59438;45.014;39.006;2022-12-19T05:10:30;102981.31;;;2.73;67.82
71643;BME280;59438;45.014;39.006;2022-12-19T05:12:56;102976.94;;;2.72;68.13
71643;BME280;59438;45.014;39.006;2022-12-19T05:15:22;102970.81;;;2.70;68.41
71643;BME280;59438;45.014;39.006;2022-12-19T05:17:49;102980.13;;;2.63;68.33
71643;BME280;59438;45.014;39.006;2022-12-19T05:20:15;102985.28;;;2.61;68.49
71643;BME280;59438;45.014;39.006;2022-12-19T05:22:42;102990.31;;;2.57;68.17
71643;BME280;59438;45.014;39.006;2022-12-19T05:25:08;102984.91;;;2.51;68.14
71643;BME280;59438;45.014;39.006;2022-12-19T05:27:36;102997.69;;;2.45;68.08
71643;BME280;59438;45.014;39.006;2022-12-19T05:30:03;102996.00;;;2.45;68.36
71643;BME280;59438;45.014;39.006;2022-12-19T05:32:30;102994.94;;;2.40;68.54
71643;BME280;59438;45.014;39.006;2022-12-19T05:34:56;102999.13;;;2.36;68.32
71643;BME280;59438;45.014;39.006;2022-12-19T05:37:23;103000.78;;;2.33;68.70
71643;BME280;59438;45.014;39.006;2022-12-19T05:39:49;102965.44;;;2.11;68.89
71643;BME280;59438;45.014;39.006;2022-12-19T05:42:18;103008.56;;;2.33;68.07
71643;BME280;59438;45.014;39.006;2022-12-19T05:44:46;103009.31;;;2.30;68.49
71643;BME280;59438;45.014;39.006;2022-12-19T05:47:12;103017.06;;;2.29;68.58
71643;BME280;59438;45.014;39.006;2022-12-19T05:49:39;103015.22;;;2.26;68.22
71643;BME280;59438;45.014;39.006;2022-12-19T05:52:05;103019.53;;;2.26;68.20
71643;BME280;59438;45.014;39.006;2022-12-19T05:54:32;103021.53;;;2.09;67.86
71643;BME280;59438;45.014;39.006;2022-12-19T05:56:58;103030.25;;;2.11;67.93
71643;BME280;59438;45.014;39.006;2022-12-19T05:59:25;103041.22;;;2.04;67.95
71643;BME280;59438;45.014;39.006;2022-12-19T06:01:53;103034.88;;;1.95;67.81
71643;BME280;59438;45.014;39.006;2022-12-19T06:04:19;103040.75;;;1.90;68.42
71643;BME280;59438;45.014;39.006;2022-12-19T06:06:45;103045.03;;;1.89;68.01
71643;BME280;59438;45.014;39.006;2022-12-19T06:09:12;103045.81;;;1.87;67.75
71643;BME280;59438;45.014;39.006;2022-12-19T06:11:38;103045.72;;;1.84;67.55
71643;BME280;59438;45.014;39.006;2022-12-19T06:14:05;103056.00;;;1.82;67.75
71643;BME280;59438;45.014;39.006;2022-12-19T06:16:31;103046.53;;;1.83;67.71
71643;BME280;59438;45.014;39.006;2022-12-19T06:18:59;103050.13;;;1.86;67.85
71643;BME280;59438;45.014;39.006;2022-12-19T06:21:25;103053.59;;;1.87;67.66
71643;BME280;59438;45.014;39.006;2022-12-19T06:23:53;103059.72;;;1.89;67.81
71643;BME280;59438;45.014;39.006;2022-12-19T06:26:20;103062.19;;;1.86;67.88
71643;BME280;59438;45.014;39.006;2022-12-19T06:28:47;103060.31;;;1.81;67.58
71643;BME280;59438;45.014;39.006;2022-12-19T06:31:14;103062.00;;;1.81;67.65
71643;BME280;59438;45.014;39.006;2022-12-19T06:33:41;103062.25;;;1.65;67.51
71643;BME280;59438;45.014;39.006;2022-12-19T06:36:11;103057.47;;;1.51;67.52
71643;BME280;59438;45.014;39.006;2022-12-19T06:38:38;103081.41;;;1.68;67.45
71643;BME280;59438;45.014;39.006;2022-12-19T06:41:05;103090.13;;;1.70;67.32
71643;BME280;59438;45.014;39.006;2022-12-19T06:43:31;103099.69;;;1.71;67.67
71643;BME280;59438;45.014;39.006;2022-12-19T06:45:58;103099.69;;;1.71;67.74
71643;BME280;59438;45.014;39.006;2022-12-19T06:48:26;103091.91;;;1.71;67.08
71643;BME280;59438;45.014;39.006;2022-12-19T06:50:53;103092.66;;;1.69;66.99
71643;BME280;59438;45.014;39.006;2022-12-19T06:53:21;103098.78;;;1.71;66.92
71643;BME280;59438;45.014;39.006;2022-12-19T06:55:48;103090.13;;;1.70;67.55
71643;BME280;59438;45.014;39.006;2022-12-19T06:58:15;103097.97;;;1.72;67.68
71643;BME280;59438;45.014;39.006;2022-12-19T07:00:42;103092.63;;;1.67;67.51
71643;BME280;59438;45.014;39.006;2022-12-19T07:03:11;103081.00;;;1.57;66.91
71643;BME280;59438;45.014;39.006;2022-12-19T07:05:39;103099.47;;;1.67;67.34
71643;BME280;59438;45.014;39.006;2022-12-19T07:08:06;103090.66;;;1.61;67.39
71643;BME280;59438;45.014;39.006;2022-12-19T07:10:34;103093.34;;;1.65;67.25
71643;BME280;59438;45.014;39.006;2022-12-19T07:13:01;103114.09;;;1.65;66.92
71643;BME280;59438;45.014;39.006;2022-12-19T07:15:28;103109.56;;;1.59;67.43
71643;BME280;59438;45.014;39.006;2022-12-19T07:17:56;103121.50;;;1.55;66.73
71643;BME280;59438;45.014;39.006;2022-12-19T07:20:23;103092.94;;;1.31;66.89
71643;BME280;59438;45.014;39.006;2022-12-19T07:22:49;103126.44;;;1.49;67.27
71643;BME280;59438;45.014;39.006;2022-12-19T07:25:16;103127.31;;;1.50;67.37
71643;BME280;59438;45.014;39.006;2022-12-19T07:27:44;103123.97;;;1.52;66.94
71643;BME280;59438;45.014;39.006;2022-12-19T07:30:12;103122.38;;;1.56;67.39
71643;BME280;59438;45.014;39.006;2022-12-19T07:32:38;103124.28;;;1.60;66.79
71643;BME280;59438;45.014;39.006;2022-12-19T07:35:05;103094.50;;;1.49;66.67
71643;BME280;59438;45.014;39.006;2022-12-19T07:37:32;103126.28;;;1.67;66.77
71643;BME280;59438;45.014;39.006;2022-12-19T07:40:01;103127.16;;;1.68;66.52
71643;BME280;59438;45.014;39.006;2022-12-19T07:42:27;103120.41;;;1.71;66.88
71643;BME280;59438;45.014;39.006;2022-12-19T07:44:55;103116.16;;;1.73;66.29
71643;BME280;59438;45.014;39.006;2022-12-19T07:47:21;103125.69;;;1.74;66.63
71643;BME280;59438;45.014;39.006;2022-12-19T07:49:48;103117.75;;;1.70;66.47
71643;BME280;59438;45.014;39.006;2022-12-19T07:52:14;103100.84;;;1.57;66.78
71643;BME280;59438;45.014;39.006;2022-12-19T07:54:40;103111.50;;;1.65;66.36
71643;BME280;59438;45.014;39.006;2022-12-19T07:57:07;103116.66;;;1.65;66.78
71643;BME280;59438;45.014;39.006;2022-12-19T07:59:33;103095.91;;;1.63;66.38
71643;BME280;59438;45.014;39.006;2022-12-19T08:02:01;103102.97;;;1.67;65.74
71643;BME280;59438;45.014;39.006;2022-12-19T08:04:28;103103.78;;;1.66;66.33
71643;BME280;59438;45.014;39.006;2022-12-19T08:06:54;103111.50;;;1.65;66.49
71643;BME280;59438;45.014;39.006;2022-12-19T08:09:20;103101.03;;;1.61;66.24
71643;BME280;59438;45.014;39.006;2022-12-19T08:11:47;103098.53;;;1.65;66.63
71643;BME280;59438;45.014;39.006;2022-12-19T08:14:13;103102.78;;;1.63;65.73
71643;BME280;59438;45.014;39.006;2022-12-19T08:16:40;103101.84;;;1.60;66.47
71643;BME280;59438;45.014;39.006;2022-12-19T08:19:08;103100.97;;;1.60;65.68
71643;BME280;59438;45.014;39.006;2022-12-19T08:21:34;103097.44;;;1.58;66.05
71643;BME280;59438;45.014;39.006;2022-12-19T08:24:00;103089.66;;;1.58;65.99
71643;BME280;59438;45.014;39.006;2022-12-19T08:26:27;103099.06;;;1.56;65.61
71643;BME280;59438;45.014;39.006;2022-12-19T08:28:54;103093.00;;;1.55;66.03
71643;BME280;59438;45.014;39.006;2022-12-19T08:31:22;103092.88;;;1.52;66.31
71643;BME280;59438;45.014;39.006;2022-12-19T08:33:49;103109.34;;;1.53;65.48
71643;BME280;59438;45.014;39.006;2022-12-19T08:36:17;103105.66;;;1.48;65.47
71643;BME280;59438;45.014;39.006;2022-12-19T08:38:45;103109.50;;;1.35;65.82
71643;BME280;59438;45.014;39.006;2022-12-19T08:41:12;103113.03;;;1.37;65.19
71643;BME280;59438;45.014;39.006;2022-12-19T08:43:38;103109.84;;;1.22;65.95
71643;BME280;59438;45.014;39.006;2022-12-19T08:46:05;103120.44;;;1.28;66.03
71643;BME280;59438;45.014;39.006;2022-12-19T08:48:33;103109.63;;;1.17;65.76
71643;BME280;59438;45.014;39.006;2022-12-19T08:51:01;103127.25;;;1.26;65.26
71643;BME280;59438;45.014;39.006;2022-12-19T08:53:30;103131.69;;;1.28;65.12
71643;BME280;59438;45.014;39.006;2022-12-19T08:55:59;103106.88;;;1.12;65.46
71643;BME280;59438;45.014;39.006;2022-12-19T08:58:27;103108.41;;;1.07;65.53
71643;BME280;59438;45.014;39.006;2022-12-19T09:00:57;103130.31;;;1.15;65.20
71643;BME280;59438;45.014;39.006;2022-12-19T09:03:23;103126.06;;;1.17;65.88
71643;BME280;59438;45.014;39.006;2022-12-19T09:05:54;103110.56;;;1.19;64.46
71643;BME280;59438;45.014;39.006;2022-12-19T09:08:20;103109.78;;;1.20;65.44
71643;BME280;59438;45.014;39.006;2022-12-19T09:10:48;103103.81;;;1.23;65.68
71643;BME280;59438;45.014;39.006;2022-12-19T09:13:15;103074.94;;;1.12;65.13
71643;BME280;59438;45.014;39.006;2022-12-19T09:15:41;103104.84;;;1.26;65.13
71643;BME280;59438;45.014;39.006;2022-12-19T09:18:07;103051.25;;;1.03;65.28
71643;BME280;59438;45.014;39.006;2022-12-19T09:20:34;103090.09;;;1.25;64.84
71643;BME280;59438;45.014;39.006;2022-12-19T09:23:00;103092.44;;;1.19;65.20
71643;BME280;59438;45.014;39.006;2022-12-19T09:25:26;103104.44;;;1.17;65.76
71643;BME280;59438;45.014;39.006;2022-12-19T09:27:54;103111.41;;;1.18;65.13
71643;BME280;59438;45.014;39.006;2022-12-19T09:30:21;103092.41;;;1.17;65.07
71643;BME280;59438;45.014;39.006;2022-12-19T09:32:47;103091.50;;;1.17;65.36
71643;BME280;59438;45.014;39.006;2022-12-19T09:35:13;103091.50;;;1.17;65.38
71643;BME280;59438;45.014;39.006;2022-12-19T09:37:40;103104.53;;;1.18;65.34
71643;BME280;59438;45.014;39.006;2022-12-19T09:40:11;103096.75;;;1.18;64.66
71643;BME280;59438;45.014;39.006;2022-12-19T09:42:56;103096.75;;;1.18;64.25
71643;BME280;59438;45.014;39.006;2022-12-19T09:45:36;103082.69;;;1.12;63.70
71643;BME280;59438;45.014;39.006;2022-12-19T09:48:10;103100.22;;;1.19;63.78
71643;BME280;59438;45.014;39.006;2022-12-19T09:50:44;103087.97;;;1.15;64.05
71643;BME280;59438;45.014;39.006;2022-12-19T09:53:18;103097.78;;;1.22;64.33
71643;BME280;59438;45.014;39.006;2022-12-19T09:55:47;103087.53;;;1.25;64.39
71643;BME280;59438;45.014;39.006;2022-12-19T09:58:25;103089.13;;;1.22;63.43
71643;BME280;59438;45.014;39.006;2022-12-19T10:00:56;103085.38;;;1.15;64.04
71643;BME280;59438;45.014;39.006;2022-12-19T10:03:25;103002.25;;;0.64;64.31
71643;BME280;59438;45.014;39.006;2022-12-19T10:05:55;103079.22;;;1.11;64.44
71643;BME280;59438;45.014;39.006;2022-12-19T10:08:26;103060.97;;;1.08;63.86
71643;BME280;59438;45.014;39.006;2022-12-19T10:11:01;103051.69;;;0.92;63.62
71643;BME280;59438;45.014;39.006;2022-12-19T10:13:40;103051.06;;;0.98;63.93
71643;BME280;59438;45.014;39.006;2022-12-19T10:16:17;103069.50;;;1.06;63.90
71643;BME280;59438;45.014;39.006;2022-12-19T10:18:51;103069.50;;;1.06;63.13
71643;BME280;59438;45.014;39.006;2022-12-19T10:21:27;103073.28;;;1.14;63.13
71643;BME280;59438;45.014;39.006;2022-12-19T10:24:12;103042.44;;;0.97;63.69
71643;BME280;59438;45.014;39.006;2022-12-19T10:26:43;103074.28;;;1.17;63.78
71643;BME280;59438;45.014;39.006;2022-12-19T10:29:29;103085.59;;;1.19;62.93
71643;BME280;59438;45.014;39.006;2022-12-19T10:32:04;103083.25;;;1.26;63.44
71643;BME280;59438;45.014;39.006;2022-12-19T10:34:35;103085.13;;;1.30;63.68
71643;BME280;59438;45.014;39.006;2022-12-19T10:37:14;103056.22;;;1.19;62.73
71643;BME280;59438;45.014;39.006;2022-12-19T10:39:52;103076.53;;;1.31;63.08
71643;BME280;59438;45.014;39.006;2022-12-19T10:42:29;103080.69;;;1.27;63.03
71643;BME280;59438;45.014;39.006;2022-12-19T10:45:03;103043.47;;;1.03;63.24
71643;BME280;59438;45.014;39.006;2022-12-19T10:47:32;103092.84;;;1.28;63.63
71643;BME280;59438;45.014;39.006;2022-12-19T10:49:58;103094.59;;;1.29;63.45
71643;BME280;59438;45.014;39.006;2022-12-19T10:52:49;103075.69;;;1.32;62.36
71643;BME280;59438;45.014;39.006;2022-12-19T10:55:23;103079.13;;;1.31;62.66
71643;BME280;59438;45.014;39.006;2022-12-19T10:57:57;103092.00;;;1.29;62.67
71643;BME280;59438;45.014;39.006;2022-12-19T11:00:25;103085.78;;;1.24;63.02
71643;BME280;59438;45.014;39.006;2022-12-19T11:03:06;103073.63;;;1.23;63.00
71643;BME280;59438;45.014;39.006;2022-12-19T11:05:41;103069.34;;;1.24;62.76
71643;BME280;59438;45.014;39.006;2022-12-19T11:08:14;103042.84;;;1.08;62.50
71643;BME280;59438;45.014;39.006;2022-12-19T11:10:43;103068.88;;;1.11;62.86
71643;BME280;59438;45.014;39.006;2022-12-19T11:13:20;103085.78;;;1.24;62.87
71643;BME280;59438;45.014;39.006;2022-12-19T11:15:50;103071.47;;;1.11;62.04
71643;BME280;59438;45.014;39.006;2022-12-19T11:18:16;103078.97;;;1.05;63.07
71643;BME280;59438;45.014;39.006;2022-12-19T11:20:54;103083.06;;;1.00;62.13
71643;BME280;59438;45.014;39.006;2022-12-19T11:23:22;103088.13;;;0.97;62.86
71643;BME280;59438;45.014;39.006;2022-12-19T11:25:55;103091.59;;;0.97;62.29
71643;BME280;59438;45.014;39.006;2022-12-19T11:28:24;103092.72;;;1.04;62.83
71643;BME280;59438;45.014;39.006;2022-12-19T11:31:00;103078.72;;;0.99;62.28
71643;BME280;59438;45.014;39.006;2022-12-19T11:33:27;103060.06;;;0.85;63.11
71643;BME280;59438;45.014;39.006;2022-12-19T11:35:55;103099.78;;;1.08;62.97
71643;BME280;59438;45.014;39.006;2022-12-19T11:38:31;103098.22;;;1.12;61.87
71643;BME280;59438;45.014;39.006;2022-12-19T11:41:07;103111.03;;;1.09;62.53
71643;BME280;59438;45.014;39.006;2022-12-19T11:43:40;103098.03;;;1.07;62.77
71643;BME280;59438;45.014;39.006;2022-12-19T11:46:22;103111.09;;;1.10;62.14
71643;BME280;59438;45.014;39.006;2022-12-19T11:48:53;103112.03;;;1.12;62.46
71643;BME280;59438;45.014;39.006;2022-12-19T11:51:27;103105.13;;;1.11;62.51
71643;BME280;59438;45.014;39.006;2022-12-19T11:54:01;103110.22;;;1.10;62.43
71643;BME280;59438;45.014;39.006;2022-12-19T11:56:31;103105.75;;;1.06;63.14
71643;BME280;59438;45.014;39.006;2022-12-19T11:59:01;103109.78;;;0.99;63.12
71643;BME280;59438;45.014;39.006;2022-12-19T12:01:41;103059.28;;;0.67;62.50
71643;BME280;59438;45.014;39.006;2022-12-19T12:07:11;103108.78;;;0.95;63.18
71643;BME280;59438;45.014;39.006;2022-12-19T12:09:43;103097.91;;;0.83;62.60
71643;BME280;59438;45.014;39.006;2022-12-19T12:12:18;103094.25;;;0.78;62.50
71643;BME280;59438;45.014;39.006;2022-12-19T12:14:55;103115.25;;;0.86;62.45
71643;BME280;59438;45.014;39.006;2022-12-19T12:17:33;103119.75;;;0.90;63.90
71643;BME280;59438;45.014;39.006;2022-12-19T12:20:13;103139.50;;;0.88;62.18
71643;BME280;59438;45.014;39.006;2022-12-19T12:22:54;103125.69;;;0.87;62.04
71643;BME280;59438;45.014;39.006;2022-12-19T12:25:33;103135.88;;;0.84;62.32
71643;BME280;59438;45.014;39.006;2022-12-19T12:28:35;103145.28;;;0.82;62.50
71643;BME280;59438;45.014;39.006;2022-12-19T12:31:17;103150.47;;;0.82;63.04
71643;BME280;59438;45.014;39.006;2022-12-19T12:33:59;103159.00;;;0.79;62.67
71643;BME280;59438;45.014;39.006;2022-12-19T12:36:34;103117.31;;;0.52;62.39
71643;BME280;59438;45.014;39.006;2022-12-19T12:39:11;103107.47;;;0.44;62.63
71643;BME280;59438;45.014;39.006;2022-12-19T12:41:44;103156.84;;;0.69;63.00
71643;BME280;59438;45.014;39.006;2022-12-19T12:44:14;103176.16;;;0.77;63.04
71643;BME280;59438;45.014;39.006;2022-12-19T12:46:44;103163.91;;;0.73;62.72
71643;BME280;59438;45.014;39.006;2022-12-19T12:49:26;103182.63;;;0.87;62.98
71643;BME280;59438;45.014;39.006;2022-12-19T12:51:55;103179.84;;;0.83;63.31
71643;BME280;59438;45.014;39.006;2022-12-19T12:54:26;103185.81;;;0.82;62.71
71643;BME280;59438;45.014;39.006;2022-12-19T12:56:57;103199.63;;;0.82;63.42
71643;BME280;59438;45.014;39.006;2022-12-19T12:59:24;103200.31;;;0.78;63.18
71643;BME280;59438;45.014;39.006;2022-12-19T13:01:53;103137.66;;;0.45;63.02
71643;BME280;59438;45.014;39.006;2022-12-19T13:04:33;103188.91;;;0.73;62.62
71643;BME280;59438;45.014;39.006;2022-12-19T13:07:18;103187.59;;;0.63;62.80